Time;durP1;ratioP1;P1;durP2;ratioP2;P2;SDS_P1;SDS_P2;PMS_P1;PMS_P2;Temp;Humidity;BMP_temperature;BMP_pressure;BME280_temperature;BME280_humidity;BME280_pressure;Samples;Min_cycle;Max_cycle;Signal;HPM_P1;HPM_P2
2022/10/30 00:01:52;;;;;;;10.60;5.20;;;;;;;15.02;74.86;101596.38;5075480;28;20293;-78
2022/10/30 00:04:18;;;;;;;10.25;5.03;;;;;;;15.02;75.00;101600.75;5072169;28;20028;-78
2022/10/30 00:06:43;;;;;;;12.95;5.05;;;;;;;14.99;75.11;101593.88;5073523;28;20020;-78
2022/10/30 00:09:09;;;;;;;12.73;5.25;;;;;;;14.98;75.36;101600.00;5073173;28;20025;-78
2022/10/30 00:11:35;;;;;;;12.25;5.05;;;;;;;14.97;75.41;101597.41;5075192;28;20051;-78
2022/10/30 00:14:00;;;;;;;8.90;4.95;;;;;;;14.95;75.31;101594.84;5073613;28;20033;-78
2022/10/30 00:16:25;;;;;;;8.85;4.80;;;;;;;14.94;75.67;101590.53;5069500;28;20530;-78
2022/10/30 00:18:51;;;;;;;11.20;5.32;;;;;;;14.90;74.91;101596.75;5066834;28;20180;-78
2022/10/30 00:21:17;;;;;;;11.23;5.50;;;;;;;14.87;75.38;101600.34;5062902;28;20025;-78
2022/10/30 00:23:47;;;;;;;12.07;5.25;;;;;;;14.85;75.54;101603.94;5078826;28;20028;-78
2022/10/30 00:26:13;;;;;;;13.55;5.28;;;;;;;14.84;75.69;101596.97;5070488;28;20094;-78
2022/10/30 00:28:39;;;;;;;12.10;5.50;;;;;;;14.83;75.51;101592.63;5071658;28;20099;-78
2022/10/30 00:31:04;;;;;;;11.85;5.22;;;;;;;14.83;75.70;101601.34;5074111;28;20032;-78
2022/10/30 00:33:30;;;;;;;10.02;5.22;;;;;;;14.80;75.91;101605.81;5074002;28;20467;-78
2022/10/30 00:35:56;;;;;;;11.35;5.22;;;;;;;14.76;75.81;101609.44;5071871;28;20023;-78
2022/10/30 00:38:21;;;;;;;12.38;5.13;;;;;;;14.74;76.12;101608.63;5072835;28;20027;-78
2022/10/30 00:40:46;;;;;;;12.70;5.60;;;;;;;14.71;76.27;101613.06;5067686;28;20032;-78
2022/10/30 00:43:28;;;;;;;12.65;5.43;;;;;;;14.71;76.14;101597.34;5070089;28;20036;-78
2022/10/30 00:45:54;;;;;;;;;;;;;;;14.75;76.17;101587.66;5070002;28;20028;-78
2022/10/30 00:48:23;;;;;;;10.32;4.20;;;;;;;14.72;75.95;101591.19;5073718;28;20275;-78
2022/10/30 00:50:48;;;;;;;14.93;4.75;;;;;;;14.71;75.89;101591.25;5073564;28;20016;-78
2022/10/30 00:53:18;;;;;;;12.20;5.05;;;;;;;14.69;76.25;101583.44;5077624;28;20024;-78
2022/10/30 00:55:50;;;;;;;12.13;5.07;;;;;;;14.68;76.27;101586.97;5072116;28;20016;-78
2022/10/30 00:58:21;;;;;;;10.75;5.00;;;;;;;14.66;76.22;101588.75;5068600;28;20097;-78
2022/10/30 01:00:50;;;;;;;11.88;4.97;;;;;;;14.65;76.36;101586.16;5072065;28;20028;-78
2022/10/30 01:03:18;;;;;;;8.88;4.80;;;;;;;14.62;76.38;101583.63;5074429;28;20024;-78
2022/10/30 01:05:49;;;;;;;11.05;4.90;;;;;;;14.60;76.11;101583.69;5070802;28;20032;-78
2022/10/30 01:08:14;;;;;;;13.43;5.45;;;;;;;14.56;76.33;101582.94;5072827;28;20028;-78
2022/10/30 01:10:40;;;;;;;13.05;5.22;;;;;;;14.55;76.54;101590.81;5072240;28;20048;-78
2022/10/30 01:13:06;;;;;;;9.93;4.68;;;;;;;14.53;76.55;101585.66;5078055;28;20025;-78
2022/10/30 01:15:40;;;;;;;10.57;5.13;;;;;;;14.51;76.40;101592.69;5074064;28;20027;-78
2022/10/30 01:18:05;;;;;;;11.02;5.18;;;;;;;14.50;76.70;101584.91;5072289;28;20020;-78
2022/10/30 01:20:54;;;;;;;13.55;5.53;;;;;;;14.49;76.59;101581.41;5072664;28;20037;-78
2022/10/30 01:23:52;;;;;;;10.90;5.68;;;;;;;14.48;76.56;101584.06;5071491;28;20039;-78
2022/10/30 01:26:28;;;;;;;11.07;4.97;;;;;;;14.47;76.86;101596.28;5072115;28;20483;-78
2022/10/30 01:29:41;;;;;;;10.45;5.18;;;;;;;14.46;76.75;101591.97;5072842;28;20020;-78
2022/10/30 01:32:34;;;;;;;9.38;5.00;;;;;;;14.45;76.83;101599.88;5055982;28;20497;-78
2022/10/30 01:35:15;;;;;;;10.50;5.10;;;;;;;14.39;77.10;101601.75;5068418;28;20409;-78
2022/10/30 01:37:55;;;;;;;11.80;5.20;;;;;;;14.39;77.26;101599.13;5065839;28;20028;-78
2022/10/30 01:40:21;;;;;;;10.95;5.30;;;;;;;14.39;77.22;101593.91;5065255;28;20075;-78
2022/10/30 01:42:57;;;;;;;13.48;5.82;;;;;;;14.37;77.17;101590.47;5073509;28;20492;-78
2022/10/30 01:45:44;;;;;;;14.30;5.30;;;;;;;14.35;76.94;101594.88;5066178;28;20035;-78
2022/10/30 01:48:25;;;;;;;10.80;5.53;;;;;;;14.32;76.90;101595.00;5064913;28;20557;-78
2022/10/30 01:50:58;;;;;;;11.40;5.50;;;;;;;14.30;77.48;101602.03;5065536;28;20463;-78
2022/10/30 01:53:39;;;;;;;12.40;5.50;;;;;;;14.26;77.13;101597.78;5065036;28;20537;-78
2022/10/30 01:56:17;;;;;;;11.95;5.18;;;;;;;14.25;77.74;101603.94;5073735;28;20031;-78
2022/10/30 01:59:01;;;;;;;12.82;5.30;;;;;;;14.24;77.75;101592.63;5071497;28;20040;-78
2022/10/30 02:01:28;;;;;;;13.05;5.55;;;;;;;14.23;78.25;101598.75;5073515;28;20101;-79
2022/10/30 02:03:53;;;;;;;16.15;5.68;;;;;;;14.19;78.26;101589.28;5074305;28;20022;-78
2022/10/30 02:06:19;;;;;;;10.35;6.00;;;;;;;14.15;78.21;101594.63;5072244;28;20028;-78
2022/10/30 02:08:44;;;;;;;11.85;5.10;;;;;;;14.10;78.04;101598.25;5071442;28;20016;-78
2022/10/30 02:11:10;;;;;;;14.43;6.15;;;;;;;14.05;78.09;101607.13;5070539;28;20102;-78
2022/10/30 02:13:36;;;;;;;16.40;5.60;;;;;;;14.03;78.70;101607.16;5071116;28;20035;-78
2022/10/30 02:16:02;;;;;;;14.48;5.78;;;;;;;14.03;79.18;101607.16;5072883;28;20488;-78
2022/10/30 02:18:28;;;;;;;12.80;5.25;;;;;;;14.05;79.08;101612.34;5070330;28;20059;-78
2022/10/30 02:20:54;;;;;;;14.10;5.90;;;;;;;14.05;78.94;101613.19;5070891;28;20342;-78
2022/10/30 02:23:21;;;;;;;11.18;5.70;;;;;;;14.05;78.88;101602.72;5071751;28;20052;-78
2022/10/30 02:25:46;;;;;;;12.80;5.82;;;;;;;14.04;78.97;101611.47;5071834;28;20077;-78
2022/10/30 02:28:12;;;;;;;10.63;5.53;;;;;;;14.04;78.92;101605.41;5071072;28;20024;-78
2022/10/30 02:30:37;;;;;;;12.95;5.53;;;;;;;14.01;78.74;101611.56;5072752;28;20107;-78
2022/10/30 02:33:02;;;;;;;17.23;5.82;;;;;;;14.00;79.00;101609.88;5071316;28;20392;-78
2022/10/30 02:35:29;;;;;;;14.38;5.63;;;;;;;13.98;78.99;101608.19;5071529;28;20488;-78
2022/10/30 02:37:54;;;;;;;18.02;5.97;;;;;;;13.95;78.92;101616.97;5072242;28;20035;-78
2022/10/30 02:40:19;;;;;;;9.70;6.07;;;;;;;13.90;78.79;101626.69;5072507;28;20104;-78
2022/10/30 02:42:50;;;;;;;12.35;5.72;;;;;;;13.87;78.91;101621.56;5069740;28;20368;-78
2022/10/30 02:45:15;;;;;;;10.93;5.55;;;;;;;13.84;79.02;101619.00;5065515;28;20484;-78
2022/10/30 02:47:41;;;;;;;11.77;5.60;;;;;;;13.81;78.51;101623.47;5070800;28;20027;-78
2022/10/30 02:50:07;;;;;;;13.32;5.70;;;;;;;13.79;79.29;101617.41;5062793;28;20055;-78
2022/10/30 02:52:32;;;;;;;14.85;5.57;;;;;;;13.78;79.03;101614.81;5071584;28;20024;-78
2022/10/30 02:54:57;;;;;;;11.40;6.07;;;;;;;13.76;79.18;101619.22;5072477;28;20028;-78
2022/10/30 02:57:23;;;;;;;13.73;5.57;;;;;;;13.74;79.29;101615.81;5069743;28;20024;-78
2022/10/30 02:59:48;;;;;;;11.95;5.60;;;;;;;13.71;79.30;101616.72;5066251;28;20033;-78
2022/10/30 03:02:13;;;;;;;12.02;5.95;;;;;;;13.70;79.69;101616.78;5073747;28;20036;-78
2022/10/30 03:04:38;;;;;;;10.75;5.13;;;;;;;13.70;80.02;101622.84;5070100;28;20035;-78
2022/10/30 03:07:04;;;;;;;16.38;5.95;;;;;;;13.71;80.29;101616.72;5071223;28;20044;-78
2022/10/30 03:09:29;;;;;;;10.85;5.43;;;;;;;13.72;79.78;101610.59;5072034;28;20035;-78
2022/10/30 03:11:54;;;;;;;9.68;5.22;;;;;;;13.73;79.90;101609.72;5070832;28;20146;-78
2022/10/30 03:14:19;;;;;;;10.10;5.43;;;;;;;13.74;79.73;101607.97;5079875;28;20024;-78
2022/10/30 03:16:45;;;;;;;13.20;5.20;;;;;;;13.72;79.54;101615.00;5077194;28;20036;-79
2022/10/30 03:19:10;;;;;;;11.68;5.72;;;;;;;13.71;80.12;101605.44;5071889;28;20119;-78
2022/10/30 03:21:35;;;;;;;12.68;5.50;;;;;;;13.71;80.30;101608.88;5069415;28;20028;-78
2022/10/30 03:24:00;;;;;;;13.02;5.43;;;;;;;13.70;80.35;101607.16;5076616;28;20082;-78
2022/10/30 03:26:26;;;;;;;14.45;5.47;;;;;;;13.71;80.49;101608.03;5067292;28;20103;-78
2022/10/30 03:28:51;;;;;;;11.13;5.55;;;;;;;13.70;80.62;101611.56;5070063;28;20070;-78
2022/10/30 03:31:18;;;;;;;16.55;5.63;;;;;;;13.69;80.60;101613.28;5069947;28;20037;-78
2022/10/30 03:33:44;;;;;;;13.27;5.30;;;;;;;13.67;80.80;101612.47;5078207;28;20028;-78
2022/10/30 03:36:11;;;;;;;15.73;5.88;;;;;;;13.67;80.73;101607.25;5064054;28;20138;-78
2022/10/30 03:38:36;;;;;;;11.15;5.63;;;;;;;13.65;80.25;101606.47;5062662;28;20462;-78
2022/10/30 03:41:03;;;;;;;14.95;5.35;;;;;;;13.63;80.49;101606.47;5063934;28;20107;-78
2022/10/30 03:43:28;;;;;;;11.98;4.97;;;;;;;13.63;80.88;101616.94;5063359;28;20161;-78
2022/10/30 03:45:55;;;;;;;12.15;5.47;;;;;;;13.61;80.54;101613.50;5064429;28;20158;-78
2022/10/30 03:48:22;;;;;;;11.63;5.03;;;;;;;13.61;80.92;101615.28;5065104;28;20486;-78
2022/10/30 03:50:48;;;;;;;14.63;5.15;;;;;;;13.61;81.22;101612.66;5066138;28;20063;-78
2022/10/30 03:53:14;;;;;;;13.38;5.22;;;;;;;13.61;80.92;101610.03;5063834;28;20472;-78
2022/10/30 03:55:39;;;;;;;11.13;5.25;;;;;;;13.61;81.08;101612.66;5064854;28;20024;-78
2022/10/30 03:58:06;;;;;;;12.30;5.18;;;;;;;13.60;81.19;101610.94;5063756;28;20032;-78
2022/10/30 04:00:32;;;;;;;10.68;5.13;;;;;;;13.58;81.00;101612.72;5065713;28;20302;-78
2022/10/30 04:02:58;;;;;;;9.65;4.78;;;;;;;13.57;80.73;101613.63;5065266;28;20040;-78
2022/10/30 04:05:24;;;;;;;10.50;5.80;;;;;;;13.54;81.09;101608.47;5066894;28;20505;-78
2022/10/30 04:07:56;;;;;;;13.90;5.15;;;;;;;13.51;80.92;101619.88;5070075;28;20056;-78
2022/10/30 04:10:21;;;;;;;10.88;5.18;;;;;;;13.49;81.53;101619.91;5067734;28;20099;-78
2022/10/30 04:12:46;;;;;;;13.52;5.13;;;;;;;13.50;81.79;101616.38;5069405;28;20112;-78
2022/10/30 04:15:12;;;;;;;12.75;5.35;;;;;;;13.49;82.10;101619.91;5071553;28;20112;-78
2022/10/30 04:17:37;;;;;;;11.27;5.18;;;;;;;13.50;82.66;101621.63;5069042;28;20086;-78
2022/10/30 04:20:03;;;;;;;12.38;5.32;;;;;;;13.50;82.08;101626.84;5070520;28;20028;-78
2022/10/30 04:22:28;;;;;;;12.93;5.22;;;;;;;13.51;82.27;101623.34;5066773;28;20032;-78
2022/10/30 04:24:53;;;;;;;12.40;5.40;;;;;;;13.49;82.52;101627.75;5069239;28;20106;-78
2022/10/30 04:27:19;;;;;;;14.68;5.55;;;;;;;13.49;82.37;101626.91;5066508;28;20065;-78
2022/10/30 04:29:45;;;;;;;13.10;5.60;;;;;;;13.51;82.58;101633.78;5069371;28;20387;-78
2022/10/30 04:32:11;;;;;;;11.07;5.50;;;;;;;13.49;81.55;101625.13;5069084;28;20028;-78
2022/10/30 04:34:38;;;;;;;10.48;5.35;;;;;;;13.46;80.53;101625.22;5068288;28;20035;-78
2022/10/30 04:37:06;;;;;;;10.82;5.20;;;;;;;13.39;80.85;101621.00;5068491;28;20024;-78
2022/10/30 04:39:32;;;;;;;10.70;5.28;;;;;;;13.33;80.66;101627.25;5068385;28;20027;-78
2022/10/30 04:41:57;;;;;;;13.95;5.00;;;;;;;13.27;80.71;101618.72;5065990;28;20107;-78
2022/10/30 04:44:22;;;;;;;12.02;5.25;;;;;;;13.20;81.06;101624.06;5068870;28;20081;-78
2022/10/30 04:46:47;;;;;;;13.57;5.63;;;;;;;13.14;81.22;101624.25;5073739;28;20091;-78
2022/10/30 04:49:13;;;;;;;10.98;4.78;;;;;;;13.10;81.56;101622.59;5071377;28;20029;-78
2022/10/30 04:51:38;;;;;;;11.68;4.82;;;;;;;13.10;81.28;101622.59;5074079;28;20037;-78
2022/10/30 04:54:03;;;;;;;11.05;5.35;;;;;;;13.07;81.63;101612.19;5074050;28;20054;-78
2022/10/30 04:56:28;;;;;;;10.18;5.13;;;;;;;13.04;81.53;101613.16;5072117;28;20031;-78
2022/10/30 04:58:54;;;;;;;10.48;5.28;;;;;;;13.00;81.28;101613.22;5068564;28;20159;-78
2022/10/30 05:01:19;;;;;;;9.85;5.03;;;;;;;12.94;81.41;101614.25;5062291;28;20028;-78
2022/10/30 05:03:44;;;;;;;10.45;5.28;;;;;;;12.88;81.27;101611.78;5069607;28;20383;-78
2022/10/30 05:06:21;;;;;;;9.18;4.95;;;;;;;12.82;81.47;101607.53;5071867;28;20036;-78
2022/10/30 05:08:47;;;;;;;12.73;5.38;;;;;;;12.77;81.76;101595.50;5069335;28;20031;-78
2022/10/30 05:11:13;;;;;;;12.00;4.72;;;;;;;12.72;82.24;101587.75;5072378;28;20048;-78
2022/10/30 05:13:38;;;;;;;10.35;5.65;;;;;;;12.69;82.05;101577.38;5071991;28;20424;-78
2022/10/30 05:16:04;;;;;;;9.95;4.65;;;;;;;12.67;82.27;101581.78;5072347;28;20032;-77
2022/10/30 05:18:29;;;;;;;10.13;5.15;;;;;;;12.64;82.28;101584.50;5071552;28;20025;-78
2022/10/30 05:20:54;;;;;;;11.45;5.03;;;;;;;12.60;82.42;101592.38;5071820;28;20358;-78
2022/10/30 05:23:19;;;;;;;9.50;4.63;;;;;;;12.58;82.78;101596.78;5071857;28;20028;-78
2022/10/30 05:25:45;;;;;;;11.27;5.20;;;;;;;12.62;83.13;101596.72;5071867;28;20074;-78
2022/10/30 05:28:10;;;;;;;11.38;5.07;;;;;;;12.61;82.72;101593.22;5069121;28;20028;-78
2022/10/30 05:30:35;;;;;;;12.82;5.30;;;;;;;12.59;82.81;101589.78;5069214;28;20601;-78
2022/10/30 05:33:06;;;;;;;9.35;5.05;;;;;;;12.56;82.54;101589.84;5069626;28;20068;-78
2022/10/30 05:35:33;;;;;;;9.38;5.47;;;;;;;12.52;82.72;101583.84;5066229;28;20036;-78
2022/10/30 05:37:59;;;;;;;10.05;4.95;;;;;;;12.49;83.03;101591.72;5065932;28;20032;-78
2022/10/30 05:40:25;;;;;;;11.10;5.35;;;;;;;12.46;83.17;101607.50;5064951;28;20059;-78
2022/10/30 05:42:51;;;;;;;10.50;4.78;;;;;;;12.41;82.68;101606.72;5067222;28;20392;-78
2022/10/30 05:45:16;;;;;;;12.00;5.38;;;;;;;12.40;82.86;101605.00;5066707;28;20033;-78
2022/10/30 05:47:42;;;;;;;8.68;4.90;;;;;;;12.37;82.90;101603.31;5065111;28;20036;-78
2022/10/30 05:50:08;;;;;;;11.15;5.03;;;;;;;12.34;82.99;101606.00;5069522;28;20043;-78
2022/10/30 05:52:34;;;;;;;8.98;5.20;;;;;;;12.30;83.30;101613.00;5066077;28;20541;-78
2022/10/30 05:54:59;;;;;;;11.77;5.38;;;;;;;12.30;83.63;101609.53;5064328;28;20047;-78
2022/10/30 05:57:28;;;;;;;11.35;5.00;;;;;;;12.26;82.85;101606.16;5065249;28;20040;-78
2022/10/30 05:59:53;;;;;;;17.88;5.00;;;;;;;12.25;83.13;101609.66;5067946;28;20420;-78
2022/10/30 06:02:18;;;;;;;11.68;5.57;;;;;;;12.21;83.40;101614.97;5067585;28;20133;-78
2022/10/30 06:04:44;;;;;;;10.48;5.03;;;;;;;12.16;83.49;101615.03;5071697;28;20055;-78
2022/10/30 06:07:09;;;;;;;12.85;5.13;;;;;;;12.13;83.55;101608.13;5070688;28;20056;-78
2022/10/30 06:09:35;;;;;;;10.27;5.07;;;;;;;12.10;83.43;101609.97;5071240;28;20479;-78
2022/10/30 06:12:00;;;;;;;9.52;5.22;;;;;;;12.06;83.38;101610.91;5069720;28;20053;-77
2022/10/30 06:14:25;;;;;;;10.23;5.25;;;;;;;12.02;83.74;101619.66;5069445;28;20915;-78
2022/10/30 06:16:50;;;;;;;11.25;5.07;;;;;;;11.99;83.59;101615.38;5068072;28;20024;-78
2022/10/30 06:19:16;;;;;;;7.78;4.90;;;;;;;11.95;83.84;101613.69;5072227;28;20060;-78
2022/10/30 06:21:41;;;;;;;9.27;4.90;;;;;;;11.92;83.74;101612.00;5069171;28;20040;-78
2022/10/30 06:24:06;;;;;;;11.25;4.88;;;;;;;11.89;83.93;101619.88;5072123;28;20055;-78
2022/10/30 06:26:32;;;;;;;11.50;5.60;;;;;;;11.84;83.30;101619.97;5068535;28;20086;-78
2022/10/30 06:28:57;;;;;;;12.45;5.05;;;;;;;11.80;83.18;101620.91;5067666;28;20471;-78
2022/10/30 06:31:22;;;;;;;10.20;4.70;;;;;;;11.79;83.48;101626.13;5070002;28;20036;-78
2022/10/30 06:33:47;;;;;;;13.95;5.45;;;;;;;11.78;83.59;101627.03;5068925;28;20088;-78
2022/10/30 06:36:13;;;;;;;8.32;4.50;;;;;;;11.76;83.27;101619.22;5064143;28;20108;-78
2022/10/30 06:38:38;;;;;;;11.75;5.03;;;;;;;11.77;83.92;101609.69;5067856;28;20102;-78
2022/10/30 06:41:03;;;;;;;10.98;5.15;;;;;;;11.73;83.42;101605.41;5069710;28;20038;-78
2022/10/30 06:43:29;;;;;;;12.20;5.28;;;;;;;11.69;82.99;101608.06;5069362;28;20511;-77
2022/10/30 06:45:56;;;;;;;8.18;4.97;;;;;;;11.63;82.92;101610.75;5069020;28;20471;-78
2022/10/30 06:48:22;;;;;;;10.23;5.10;;;;;;;11.62;83.59;101608.19;5069309;28;20031;-78
2022/10/30 06:50:53;;;;;;;12.35;5.85;;;;;;;11.63;84.06;101605.56;5071232;28;20727;-78
2022/10/30 06:53:18;;;;;;;8.27;4.90;;;;;;;11.59;83.05;101606.53;5068151;28;20051;-78
2022/10/30 06:55:43;;;;;;;10.32;4.68;;;;;;;11.56;82.41;101603.09;5067521;28;20457;-78
2022/10/30 06:58:09;;;;;;;12.35;4.88;;;;;;;11.52;82.90;101602.28;5077449;28;20164;-78
2022/10/30 07:00:34;;;;;;;8.80;5.07;;;;;;;11.50;83.71;101601.44;5068394;28;20032;-78
2022/10/30 07:03:00;;;;;;;11.32;5.00;;;;;;;11.52;84.54;101594.47;5066981;28;20123;-78
2022/10/30 07:05:26;;;;;;;9.52;5.50;;;;;;;11.51;83.80;101603.16;5070186;28;20055;-78
2022/10/30 07:07:51;;;;;;;15.07;5.53;;;;;;;11.51;83.51;101603.16;5069941;28;20219;-78
2022/10/30 07:10:17;;;;;;;11.48;5.50;;;;;;;11.51;83.94;101608.38;5070664;28;20029;-78
2022/10/30 07:12:50;;;;;;;13.30;5.43;;;;;;;11.54;84.32;101608.34;5068797;28;20032;-78
2022/10/30 07:15:15;;;;;;;9.52;5.07;;;;;;;11.56;84.47;101605.69;5071779;28;20545;-77
2022/10/30 07:17:40;;;;;;;7.95;5.03;;;;;;;11.57;83.75;101602.19;5066510;28;20029;-78
2022/10/30 07:20:06;;;;;;;9.50;4.78;;;;;;;11.60;84.36;101599.53;5068287;28;20051;-78
2022/10/30 07:22:31;;;;;;;10.90;5.32;;;;;;;11.63;84.85;101599.50;5078558;28;20016;-78
2022/10/30 07:24:56;;;;;;;13.60;5.85;;;;;;;11.63;84.83;101592.53;5071406;28;20548;-78
2022/10/30 07:27:22;;;;;;;11.63;5.32;;;;;;;11.66;84.90;101592.47;5071214;28;20040;-78
2022/10/30 07:29:47;;;;;;;9.43;5.10;;;;;;;11.67;84.61;101594.19;5067276;28;20340;-78
2022/10/30 07:32:12;;;;;;;11.73;5.80;;;;;;;11.69;85.33;101587.22;5064602;28;20036;-78
2022/10/30 07:34:37;;;;;;;10.25;5.47;;;;;;;11.70;85.88;101593.25;5069292;28;20073;-78
2022/10/30 07:37:03;;;;;;;10.95;5.32;;;;;;;11.76;86.03;101597.53;5068506;28;20040;-78
2022/10/30 07:39:28;;;;;;;10.35;5.20;;;;;;;11.79;86.80;101597.44;5064135;28;20475;-78
2022/10/30 07:41:53;;;;;;;11.40;5.15;;;;;;;11.82;87.00;101592.19;5068992;28;20036;-78
2022/10/30 07:44:18;;;;;;;9.30;5.15;;;;;;;11.86;86.31;101593.00;5072347;28;20077;-78
2022/10/30 07:46:44;;;;;;;10.27;5.45;;;;;;;11.89;86.12;101599.00;5070315;28;20384;-78
2022/10/30 07:49:09;;;;;;;9.55;5.63;;;;;;;11.92;86.20;101596.34;5052498;28;20100;-78
2022/10/30 07:51:34;;;;;;;13.50;5.90;;;;;;;11.93;86.10;101598.06;5052531;28;20093;-78
2022/10/30 07:53:59;;;;;;;13.30;5.88;;;;;;;11.97;86.53;101596.25;5052427;28;20086;-78
2022/10/30 07:56:25;;;;;;;12.32;5.50;;;;;;;11.98;86.75;101588.44;5069592;28;20031;-78
2022/10/30 07:58:50;;;;;;;9.55;5.70;;;;;;;12.05;87.23;101593.53;5072932;28;20024;-78
2022/10/30 08:01:15;;;;;;;11.98;5.90;;;;;;;12.09;86.61;101592.59;5072520;28;20028;-78
2022/10/30 08:03:40;;;;;;;11.75;5.82;;;;;;;12.11;87.17;101594.25;5072092;28;20021;-78
2022/10/30 08:06:06;;;;;;;12.50;6.25;;;;;;;12.15;86.95;101595.06;5071027;28;20108;-78
2022/10/30 08:08:31;;;;;;;13.63;6.25;;;;;;;12.20;86.79;101595.81;5066781;28;20486;-77
2022/10/30 08:10:57;;;;;;;13.48;6.57;;;;;;;12.25;87.08;101598.34;5070752;28;20182;-77
2022/10/30 08:13:22;;;;;;;11.88;6.68;;;;;;;12.30;87.29;101602.56;5071834;28;20036;-78
2022/10/30 08:15:48;;;;;;;11.10;6.43;;;;;;;12.35;87.41;101602.50;5069805;28;20036;-78
2022/10/30 08:18:13;;;;;;;11.88;6.43;;;;;;;12.41;87.63;101606.72;5072583;28;20105;-78
2022/10/30 08:20:39;;;;;;;12.30;6.63;;;;;;;12.46;87.33;101604.88;5083719;28;20471;-78
2022/10/30 08:23:04;;;;;;;11.98;6.65;;;;;;;12.51;87.92;101604.78;5089235;28;20035;-78
2022/10/30 08:25:30;;;;;;;11.80;6.47;;;;;;;12.55;88.01;101599.44;5082693;28;20031;-78
2022/10/30 08:28:00;;;;;;;13.93;6.57;;;;;;;12.61;88.13;101588.00;5084631;28;20080;-77
2022/10/30 08:30:28;;;;;;;12.70;7.10;;;;;;;12.65;88.04;101583.56;5073503;28;20036;-78
2022/10/30 08:32:58;;;;;;;11.88;7.13;;;;;;;12.69;88.20;101580.00;5077307;28;20287;-78
2022/10/30 08:35:23;;;;;;;16.05;7.95;;;;;;;12.74;88.17;101572.94;5084471;28;20039;-78
2022/10/30 08:37:51;;;;;;;14.70;8.10;;;;;;;12.78;88.45;101571.97;5085689;28;20028;-78
2022/10/30 08:40:16;;;;;;;14.05;8.25;;;;;;;12.83;88.45;101577.91;5083800;28;20123;-78
2022/10/30 08:42:41;;;;;;;15.63;8.65;;;;;;;12.89;88.38;101585.63;5085111;28;20114;-78
2022/10/30 08:45:07;;;;;;;16.02;8.27;;;;;;;12.96;88.72;101588.94;5082854;28;20024;-77
2022/10/30 08:47:33;;;;;;;15.95;8.85;;;;;;;13.03;88.61;101589.66;5088428;28;20035;-78
2022/10/30 08:49:58;;;;;;;15.82;8.63;;;;;;;13.09;88.82;101593.88;5088162;28;20055;-78
2022/10/30 08:52:24;;;;;;;14.00;8.60;;;;;;;13.15;88.73;101593.72;5086835;28;20066;-79
2022/10/30 08:54:49;;;;;;;16.45;8.43;;;;;;;13.20;87.81;101587.50;5083908;28;20107;-79
2022/10/30 08:57:14;;;;;;;18.30;8.45;;;;;;;13.26;87.79;101573.41;5083546;28;20092;-79
2022/10/30 08:59:40;;;;;;;15.43;8.15;;;;;;;13.32;87.67;101577.66;5087208;28;20050;-78
2022/10/30 09:02:07;;;;;;;16.45;9.10;;;;;;;13.38;88.01;101585.31;5082394;28;20074;-78
2022/10/30 09:04:32;;;;;;;14.77;8.57;;;;;;;13.43;87.01;101583.47;5084835;28;20040;-78
2022/10/30 09:06:59;;;;;;;15.55;8.95;;;;;;;13.50;87.50;101589.41;5079760;28;20036;-78
2022/10/30 09:09:25;;;;;;;14.57;9.25;;;;;;;13.59;87.19;101585.69;5080830;28;20108;-77
2022/10/30 09:11:50;;;;;;;21.40;9.80;;;;;;;13.67;87.05;101581.09;5083374;28;20175;-78
2022/10/30 09:14:15;;;;;;;17.83;9.80;;;;;;;13.75;87.90;101579.16;5082120;28;20097;-78
2022/10/30 09:16:40;;;;;;;15.13;9.18;;;;;;;13.80;86.17;101582.50;5080607;28;20032;-79
2022/10/30 09:19:05;;;;;;;17.70;9.43;;;;;;;13.87;85.90;101577.97;5083809;28;20032;-79
2022/10/30 09:21:31;;;;;;;17.77;9.98;;;;;;;13.94;85.86;101576.88;5081887;28;20040;-79
2022/10/30 09:23:56;;;;;;;16.23;9.43;;;;;;;14.02;85.86;101576.66;5083245;28;20467;-78
2022/10/30 09:26:21;;;;;;;17.58;9.60;;;;;;;14.10;85.50;101579.91;5081665;28;20074;-79
2022/10/30 09:28:47;;;;;;;16.17;8.63;;;;;;;14.20;85.27;101580.50;5082499;28;20040;-78
2022/10/30 09:31:12;;;;;;;16.83;9.30;;;;;;;14.29;85.37;101571.53;5078316;28;20033;-78
2022/10/30 09:33:37;;;;;;;16.30;9.05;;;;;;;14.40;85.58;101573.84;5085431;28;20084;-78
2022/10/30 09:36:03;;;;;;;14.00;8.55;;;;;;;14.51;85.18;101570.91;5084655;28;20047;-78
2022/10/30 09:38:28;;;;;;;17.25;8.90;;;;;;;14.61;84.54;101569.69;5088136;28;20031;-78
2022/10/30 09:41:10;;;;;;;17.50;9.13;;;;;;;14.71;84.24;101571.16;5083073;28;20036;-78
2022/10/30 09:43:50;;;;;;;15.30;8.93;;;;;;;14.81;84.25;101570.88;5084599;28;20040;-78
2022/10/30 09:46:47;;;;;;;17.50;8.75;;;;;;;14.92;84.08;101568.75;5080731;28;20031;-78
2022/10/30 09:49:25;;;;;;;13.93;8.45;;;;;;;15.00;83.94;101572.00;5080600;28;20494;-78
2022/10/30 09:51:56;;;;;;;16.23;9.10;;;;;;;15.10;83.70;101566.44;5081426;28;20035;-77
2022/10/30 09:54:35;;;;;;;16.95;8.30;;;;;;;15.17;83.49;101573.19;5079737;28;20035;-78
2022/10/30 09:57:18;;;;;;;15.13;8.52;;;;;;;15.25;82.65;101571.16;5082843;28;20039;-78
2022/10/30 09:59:53;;;;;;;14.70;8.90;;;;;;;15.31;83.26;101578.84;5086363;28;20048;-78
2022/10/30 10:02:35;;;;;;;17.90;9.15;;;;;;;15.39;83.16;101586.44;5083315;28;20032;-78
2022/10/30 10:05:04;;;;;;;17.73;9.00;;;;;;;15.47;82.83;101588.78;5084207;28;20079;-78
2022/10/30 10:07:36;;;;;;;13.93;8.35;;;;;;;15.53;83.20;101595.59;5085204;28;20036;-78
2022/10/30 10:10:12;;;;;;;14.73;8.90;;;;;;;15.55;82.15;101596.41;5080295;28;20082;-78
2022/10/30 10:12:45;;;;;;;14.40;8.52;;;;;;;15.55;81.60;101599.03;5082964;28;20112;-78
2022/10/30 10:15:48;;;;;;;11.82;8.48;;;;;;;15.58;82.72;101599.75;5087587;28;20032;-78
2022/10/30 10:18:24;;;;;;;15.00;8.02;;;;;;;15.63;82.60;101599.59;5075024;28;20036;-78
2022/10/30 10:20:53;;;;;;;18.95;8.48;;;;;;;15.68;82.40;101596.84;5084962;28;20066;-78
2022/10/30 10:23:48;;;;;;;16.83;8.57;;;;;;;15.71;81.60;101594.09;5083552;28;20034;-78
2022/10/30 10:26:55;;;;;;;15.82;8.82;;;;;;;15.76;81.98;101586.91;5076652;28;20044;-78
2022/10/30 10:29:39;;;;;;;17.25;8.65;;;;;;;15.81;81.22;101585.00;5079262;28;20043;-78
2022/10/30 10:32:37;;;;;;;11.93;8.02;;;;;;;15.86;81.22;101574.34;5083970;28;20028;-78
2022/10/30 10:35:35;;;;;;;14.25;8.50;;;;;;;15.89;80.49;101580.34;5083013;28;20059;-78
2022/10/30 10:38:11;;;;;;;15.05;8.40;;;;;;;15.94;80.94;101585.44;5080541;28;20422;-78
2022/10/30 10:40:56;;;;;;;13.65;7.85;;;;;;;15.98;80.48;101575.69;5082503;28;20388;-78
2022/10/30 10:43:27;;;;;;;14.82;8.45;;;;;;;16.04;80.11;101591.22;5082507;28;20085;-78
2022/10/30 10:45:52;;;;;;;17.00;8.55;;;;;;;16.08;80.33;101577.03;5083863;28;20027;-78
2022/10/30 10:48:24;;;;;;;14.50;8.02;;;;;;;16.13;80.77;101580.34;5081543;28;20069;-78
2022/10/30 10:51:00;;;;;;;13.07;7.63;;;;;;;16.18;80.06;101574.94;5080629;28;20020;-78
2022/10/30 10:53:38;;;;;;;14.43;7.55;;;;;;;16.21;80.17;101572.19;5082954;28;20032;-78
2022/10/30 10:56:04;;;;;;;13.85;7.93;;;;;;;16.24;80.64;101567.66;5082831;28;20028;-78
2022/10/30 10:58:35;;;;;;;13.85;7.85;;;;;;;16.27;79.96;101568.47;5080840;28;20031;-78
2022/10/30 11:01:01;;;;;;;12.07;7.15;;;;;;;16.30;78.63;101574.47;5078990;28;20520;-78
2022/10/30 11:03:49;;;;;;;15.70;7.65;;;;;;;16.35;79.46;101577.78;5081507;28;20028;-78
2022/10/30 11:06:31;;;;;;;14.02;7.75;;;;;;;16.41;79.82;101570.56;5079199;28;20032;-78
2022/10/30 11:09:18;;;;;;;12.85;7.30;;;;;;;16.48;79.59;101569.44;5073820;28;20051;-78
2022/10/30 11:11:48;;;;;;;18.65;7.65;;;;;;;16.52;78.52;101571.88;5080899;28;20098;-78
2022/10/30 11:14:17;;;;;;;14.32;7.65;;;;;;;16.57;78.72;101569.06;5079511;28;20032;-78
2022/10/30 11:17:04;;;;;;;15.70;7.97;;;;;;;16.62;78.58;101567.13;5081444;28;20403;-78
2022/10/30 11:19:30;;;;;;;13.20;7.45;;;;;;;16.67;77.66;101564.31;5081732;28;20474;-78
2022/10/30 11:21:57;;;;;;;13.23;7.47;;;;;;;16.71;77.74;101563.28;5080741;28;20036;-78
2022/10/30 11:24:32;;;;;;;15.05;7.10;;;;;;;16.76;76.93;101563.91;5082370;28;20077;-78
2022/10/30 11:27:19;;;;;;;14.02;7.15;;;;;;;16.81;77.85;101561.97;5077578;28;20036;-78